• Join FlightAware (Why Join?)
  • Login
  • US Flag 
03:21PM EDT


 

Airport Tracker/Info


-or-


 

Live Flight TrackerFlight Track Log ✈ SKW5516 ✈ 04-Jun-2013 ✈ KFAT - KLAX

Flight Track Log - Related Links

Times and Time Zones

All times are in EDT time to prevent confusion due to time zone crossing. See the SKW5516 flight status page for this flight to view local times or setup timezone preferences in your user account.

Time Position Orientation Groundspeed Altitude Reporting Facility
EDT Latitude Longitude Course Direction KTS MPH feet Rate Location/Type
05:37PM 36.5964 -119.6324 159° South  Level Estimated
05:38PM 36.5364 -119.6037 159° South  Level Estimated
05:39PM 36.4763 -119.5751 159° South  Level Estimated
05:40PM 36.4163 -119.5465 159° South  Level Estimated
05:41PM 36.3562 -119.5180 159° South  Level Estimated
05:42PM 36.2962 -119.4895 159° South  Level Estimated
05:43PM 36.2361 -119.4610 159° South  Level Estimated
05:44PM 36.1760 -119.4326 159° South  Level Estimated
05:45PM 36.1160 -119.4043 159° South  Level Estimated
05:46PM 36.0559 -119.3759 159° South  Level Estimated
05:47PM 35.9958 -119.3477 159° South  Level Estimated
05:48PM 35.9357 -119.3194 159° South  Level Estimated
05:49PM 35.8756 -119.2913 159° South  Level Estimated
05:50PM 35.8155 -119.2631 159° South  Level Estimated
05:51PM 35.7554 -119.2350 159° South  Level Estimated
05:52PM 35.6953 -119.2069 159° South  Level Estimated
05:53PM 35.6352 -119.1789 159° South  Level Estimated
05:54PM 35.5750 -119.1509 159° South  Level Estimated
05:55PM 35.5149 -119.1230 159° South  Level Estimated
05:56PM 35.4547 -119.0951 159° South  Level Estimated
05:57PM 35.3946 -119.0673 159° South  Level Estimated
05:58PM 35.3344 -119.0395 159° South  Level Estimated
05:59PM 35.2743 -119.0117 159° South  Level Estimated
06:00PM 35.2141 -118.9840 159° South  Level Estimated
06:01PM 35.1539 -118.9563 159° South  Level Estimated
06:02PM 35.0937 -118.9286 159° South  Level Estimated
06:03PM 35.0335 -118.9010 159° South  Level Estimated
06:04PM 34.9733 -118.8735 159° South  Level Estimated
06:05PM 34.9131 -118.8460 159° South  Level Estimated
06:06PM 34.8529 -118.8185 159° South  Level Estimated
06:07PM 34.7927 -118.7911 159° South  Level Estimated
06:08PM 34.7325 -118.7636 159° South  Level Estimated
06:09PM 34.6723 -118.7363 160° South  Level Estimated
06:10PM 34.6120 -118.7090 160° South  Level Estimated
06:11PM 34.5518 -118.6817 160° South  Level Estimated
06:12PM 34.4916 -118.6544 160° South  Level Estimated
06:13PM 34.4313 -118.6273 160° South  Level Estimated
06:14PM 34.3711 -118.6001 160° South  Level Estimated
06:15PM 34.3108 -118.5730 160° South  Level Estimated
06:16PM 34.2505 -118.5459 160° South  Level Estimated
06:17PM 34.1903 -118.5188 160° South  Level Estimated
06:18PM 34.1300 -118.4918 160° South  Level Estimated
06:19PM 34.0697 -118.4648 160° South  Level Estimated
06:20PM 34.0094 -118.4379 160° South  Level Estimated
06:21PM 33.9491 -118.4110 160° South  Level Estimated
06:22PM 33.9425 -118.4081 160° South  Level Estimated
06:23PM 33.9425 -118.4081 164° South  Level Estimated
06:24PM 33.9425 -118.4081 164° South  Level Estimated
06:25PM 33.9425 -118.4081 164° South  Level Estimated
06:26PM 33.9425 -118.4081 164° South  Level Estimated
06:27PM 33.9425 -118.4081 164° South  Level Estimated